Time;durP1;ratioP1;P1;durP2;ratioP2;P2;SDS_P1;SDS_P2;PMS_P1;PMS_P2;Temp;Humidity;BMP_temperature;BMP_pressure;BME280_temperature;BME280_humidity;BME280_pressure;Samples;Min_cycle;Max_cycle;Signal;HPM_P1;HPM_P2
2022/01/20 00:00:02;;;;;;;32.45;5.30;;;3.90;99.90;;;;;;5111023;28;20040;-68
2022/01/20 00:02:35;;;;;;;45.58;5.45;;;3.80;99.90;;;;;;5109312;28;20040;-68
2022/01/20 00:26:15;;;;;;;36.75;4.63;;;3.80;99.90;;;;;;5014748;28;20115;-68
2022/01/20 00:28:45;;;;;;;21.33;4.22;;;3.90;99.90;;;;;;5014865;28;20053;-68
2022/01/20 00:33:48;;;;;;;27.20;4.57;;;4.00;99.90;;;;;;5031217;28;20128;-68
2022/01/20 00:38:42;;;;;;;25.05;3.90;;;;;;;;;;5030954;28;20057;-68
2022/01/20 00:41:15;;;;;;;27.65;3.63;;;3.40;99.90;;;;;;5031176;28;20053;-68
2022/01/20 00:43:44;;;;;;;20.65;3.47;;;3.50;99.90;;;;;;5014708;28;20049;-68
2022/01/20 00:46:11;;;;;;;24.55;3.65;;;4.10;99.90;;;;;;5031152;28;20084;-68
2022/01/20 00:48:39;;;;;;;25.00;3.95;;;4.10;99.90;;;;;;5031155;28;20093;-68
2022/01/20 00:51:05;;;;;;;22.23;3.33;;;;;;;;;;5014408;28;20053;-68
2022/01/20 00:53:31;;;;;;;19.05;3.42;;;;;;;;;;5017456;28;20064;-68
2022/01/20 00:55:59;;;;;;;19.58;3.67;;;3.60;99.90;;;;;;5050924;28;20157;-68
2022/01/20 00:58:25;;;;;;;20.52;3.60;;;;;;;;;;5050836;28;20155;-68
2022/01/20 01:00:51;;;;;;;23.02;3.60;;;3.40;99.90;;;;;;5050543;28;20128;-69
2022/01/20 01:03:17;;;;;;;25.88;4.20;;;4.00;99.90;;;;;;5085020;28;20130;-68
2022/01/20 01:06:01;;;;;;;22.30;3.05;;;;;;;;;;5113719;28;20048;-68
2022/01/20 01:08:31;;;;;;;18.23;3.33;;;;;;;;;;5114172;28;20087;-68
2022/01/20 01:10:57;;;;;;;20.63;3.17;;;;;;;;;;5095119;28;20063;-68
2022/01/20 01:13:25;;;;;;;22.52;3.15;;;;;;;;;;5111999;28;20060;-68
2022/01/20 01:15:52;;;;;;;19.55;3.22;;;3.70;99.90;;;;;;5113348;28;20052;-68
2022/01/20 01:23:37;;;;;;;23.52;3.53;;;3.50;99.90;;;;;;5112293;28;20086;-68
2022/01/20 01:26:11;;;;;;;24.25;3.28;;;3.50;99.90;;;;;;5129463;27;20403;-68
2022/01/20 01:28:37;;;;;;;28.88;4.00;;;;;;;;;;5113266;28;20043;-68
2022/01/20 01:33:53;;;;;;;23.42;3.10;;;3.70;99.90;;;;;;5112066;28;20130;-68
2022/01/20 01:36:26;;;;;;;24.15;3.58;;;3.50;99.90;;;;;;5113127;28;20043;-68
2022/01/20 01:38:52;;;;;;;26.38;3.30;;;3.90;99.90;;;;;;5111530;28;20091;-68
2022/01/20 01:41:29;;;;;;;24.05;3.50;;;3.30;99.90;;;;;;5112935;28;20475;-68
2022/01/20 01:43:56;;;;;;;20.35;3.35;;;3.60;99.90;;;;;;5113046;28;20043;-68
2022/01/20 01:46:22;;;;;;;21.52;3.22;;;3.20;99.90;;;;;;5113107;28;20123;-68
2022/01/20 01:48:48;;;;;;;26.75;4.20;;;3.50;99.90;;;;;;5112807;28;20128;-68
2022/01/20 01:51:14;;;;;;;22.30;3.63;;;3.60;99.90;;;;;;5112859;28;20121;-68
2022/01/20 01:53:40;;;;;;;24.27;3.85;;;3.70;99.90;;;;;;5112582;27;20080;-68
2022/01/20 01:56:07;;;;;;;24.08;3.10;;;3.70;99.90;;;;;;5128761;27;20391;-68
2022/01/20 01:58:33;;;;;;;31.83;3.70;;;3.40;99.90;;;;;;5094124;28;20047;-68
2022/01/20 02:01:00;;;;;;;17.13;3.60;;;3.40;99.90;;;;;;5112444;28;20044;-68
2022/01/20 02:03:26;;;;;;;29.58;4.05;;;;;;;;;;5112720;28;20040;-68
2022/01/20 02:08:44;;;;;;;17.77;3.40;;;;;;;;;;5112665;28;20522;-67
2022/01/20 02:19:26;;;;;;;19.38;2.70;;;;;;;;;;5110847;28;20160;-68
2022/01/20 02:21:56;;;;;;;16.85;2.55;;;3.40;99.90;;;;;;5110977;28;20809;-68
2022/01/20 02:24:23;;;;;;;14.60;2.55;;;3.70;99.90;;;;;;5110921;28;20142;-68
2022/01/20 02:26:49;;;;;;;14.35;2.50;;;3.50;99.90;;;;;;5112095;28;20392;-68
2022/01/20 02:29:15;;;;;;;14.68;2.47;;;3.70;99.90;;;;;;5110720;28;20062;-68
2022/01/20 02:31:41;;;;;;;13.27;2.92;;;3.10;99.90;;;;;;5110861;28;20402;-68
2022/01/20 02:34:13;;;;;;;13.48;2.50;;;3.30;99.90;;;;;;5112033;28;20035;-68
2022/01/20 02:36:43;;;;;;;15.70;2.63;;;3.30;99.90;;;;;;5112533;28;20154;-68
2022/01/20 02:39:30;;;;;;;14.10;2.35;;;;;;;;;;5112502;28;20494;-68
2022/01/20 02:44:57;;;;;;;17.55;2.60;;;3.60;99.90;;;;;;5110503;28;20131;-68
2022/01/20 02:47:27;;;;;;;17.67;3.08;;;3.20;99.90;;;;;;5110415;28;20407;-68
2022/01/20 02:49:53;;;;;;;18.33;2.75;;;3.70;99.90;;;;;;5111525;27;20051;-68
2022/01/20 02:52:20;;;;;;;20.13;3.30;;;3.50;99.90;;;;;;5111630;28;20040;-67
2022/01/20 02:54:50;;;;;;;18.08;2.58;;;3.70;99.90;;;;;;5111723;28;20395;-68
2022/01/20 02:57:16;;;;;;;16.38;2.47;;;3.30;99.90;;;;;;5110225;28;20067;-68
2022/01/20 02:59:43;;;;;;;15.63;2.47;;;3.10;99.90;;;;;;5111565;28;20110;-68
2022/01/20 03:02:10;;;;;;;13.27;2.40;;;;;;;;;;5109576;28;20124;-68
2022/01/20 03:04:37;;;;;;;13.40;2.53;;;3.60;99.90;;;;;;5109796;28;20106;-68
2022/01/20 03:07:04;;;;;;;15.52;2.53;;;2.10;99.90;;;;;;5111197;28;20563;-68
2022/01/20 03:09:30;;;;;;;14.00;2.40;;;;;;;;;;5127333;27;20049;-68
2022/01/20 03:11:56;;;;;;;11.18;2.22;;;3.60;99.90;;;;;;5109593;28;20087;-70
2022/01/20 03:14:22;;;;;;;12.65;2.25;;;3.70;99.90;;;;;;5111283;28;20513;-69
2022/01/20 03:16:50;;;;;;;12.90;2.53;;;3.40;99.90;;;;;;5110010;28;20122;-69
2022/01/20 03:19:16;;;;;;;14.43;2.42;;;3.50;99.90;;;;;;5111106;28;20050;-68
2022/01/20 03:21:42;;;;;;;15.07;2.65;;;3.70;99.90;;;;;;5111208;28;20040;-68
2022/01/20 03:24:09;;;;;;;13.00;2.70;;;3.40;99.90;;;;;;5109863;28;20044;-68
2022/01/20 03:26:36;;;;;;;15.23;2.55;;;3.60;99.90;;;;;;5110990;28;20036;-68
2022/01/20 03:29:02;;;;;;;15.93;2.97;;;3.40;99.90;;;;;;5110901;28;20044;-68
2022/01/20 03:31:30;;;;;;;14.68;2.50;;;3.40;99.90;;;;;;5110820;28;20055;-68
2022/01/20 03:33:56;;;;;;;16.85;2.63;;;3.20;99.90;;;;;;5092591;28;20055;-68
2022/01/20 03:36:21;;;;;;;22.60;3.30;;;3.30;99.90;;;;;;5111062;28;20126;-68
2022/01/20 03:38:47;;;;;;;21.33;2.90;;;2.80;99.90;;;;;;5111130;28;20125;-68
2022/01/20 03:41:13;;;;;;;19.15;2.90;;;;;;;;;;5110829;28;20039;-68
2022/01/20 03:43:39;;;;;;;22.20;3.65;;;;;;;;;;5110372;28;20047;-68
2022/01/20 03:46:11;;;;;;;27.55;3.90;;;;;;;;;;5108974;28;20035;-68
2022/01/20 03:48:51;;;;;;;26.02;3.97;;;3.30;99.90;;;;;;5110678;28;20415;-68
2022/01/20 03:51:21;;;;;;;25.10;4.32;;;3.30;99.90;;;;;;5111089;28;20040;-68
2022/01/20 03:53:50;;;;;;;25.20;3.78;;;3.30;99.90;;;;;;5110718;28;20071;-68
2022/01/20 03:56:16;;;;;;;24.55;4.35;;;;;;;;;;5110636;28;20136;-68
2022/01/20 03:58:42;;;;;;;29.70;4.47;;;3.10;99.90;;;;;;5109221;28;20054;-69
2022/01/20 04:01:08;;;;;;;23.38;4.20;;;3.30;99.90;;;;;;5110617;28;20119;-69
2022/01/20 04:03:33;;;;;;;36.35;4.68;;;3.50;99.90;;;;;;5109161;28;20502;-69
2022/01/20 04:06:00;;;;;;;26.90;4.30;;;;;;;;;;5110683;28;20051;-69
2022/01/20 04:08:38;;;;;;;34.83;4.90;;;3.10;99.90;;;;;;5109192;28;20560;-68
2022/01/20 04:11:25;;;;;;;27.08;4.43;;;3.30;99.90;;;;;;5109130;28;20047;-68
2022/01/20 04:13:52;;;;;;;27.55;4.47;;;3.20;99.90;;;;;;5108753;28;20063;-69
2022/01/20 04:16:20;;;;;;;29.50;4.28;;;3.30;99.90;;;;;;5110378;28;20411;-69
2022/01/20 04:18:54;;;;;;;29.90;4.40;;;3.40;99.90;;;;;;5109303;28;20051;-69
2022/01/20 04:21:23;;;;;;;28.30;4.78;;;3.10;99.90;;;;;;5110978;28;20485;-68
2022/01/20 04:23:49;;;;;;;28.83;4.80;;;3.40;99.90;;;;;;5110513;28;20043;-68
2022/01/20 04:26:15;;;;;;;30.52;4.38;;;3.30;99.90;;;;;;5110517;28;20797;-68
2022/01/20 04:28:40;;;;;;;28.58;4.97;;;3.00;99.90;;;;;;5109741;28;20061;-68
2022/01/20 04:31:07;;;;;;;25.08;4.45;;;;;;;;;;5110666;28;20078;-69
2022/01/20 04:33:33;;;;;;;25.42;5.18;;;;;;;;;;5110454;28;20534;-69
2022/01/20 04:35:59;;;;;;;28.38;4.75;;;2.50;99.90;;;;;;5110236;28;20047;-69
2022/01/20 04:38:26;;;;;;;25.70;4.45;;;;;;;;;;5110137;28;20535;-68
2022/01/20 04:40:51;;;;;;;19.77;3.60;;;2.40;99.90;;;;;;5110282;28;20036;-69
2022/01/20 04:43:18;;;;;;;26.42;4.65;;;3.30;99.90;;;;;;5109147;28;20040;-69
2022/01/20 04:45:52;;;;;;;24.80;4.55;;;4.10;99.90;;;;;;5092421;28;20042;-68
2022/01/20 04:48:26;;;;;;;25.52;4.15;;;2.20;99.90;;;;;;5108731;28;20079;-68
2022/01/20 04:59:05;;;;;;;27.20;3.95;;;;;;;;;;5113726;28;20134;-68
2022/01/20 05:01:32;;;;;;;22.92;5.07;;;2.20;99.90;;;;;;5112706;28;20055;-69
2022/01/20 05:03:58;;;;;;;20.05;4.10;;;;;;;;;;5112294;28;20063;-69
2022/01/20 05:06:24;;;;;;;21.75;3.75;;;2.70;99.90;;;;;;5113747;28;20060;-69
2022/01/20 05:08:52;;;;;;;19.40;3.53;;;2.70;99.90;;;;;;5113417;28;20050;-68
2022/01/20 05:11:18;;;;;;;21.10;3.38;;;;;;;;;;5113376;28;20071;-68
2022/01/20 05:13:43;;;;;;;17.20;3.38;;;2.50;99.90;;;;;;5113268;28;20080;-69
2022/01/20 05:16:11;;;;;;;22.52;3.63;;;2.70;99.90;;;;;;5113461;28;20044;-69
2022/01/20 05:18:41;;;;;;;16.00;3.10;;;;;;;;;;5113090;28;20510;-68
2022/01/20 05:21:07;;;;;;;23.63;3.33;;;;;;;;;;5113079;28;20136;-68
2022/01/20 05:23:33;;;;;;;16.38;3.10;;;;;;;;;;5113357;28;20035;-68
2022/01/20 05:25:59;;;;;;;23.60;3.78;;;2.60;99.90;;;;;;5113156;28;20076;-68
2022/01/20 05:28:24;;;;;;;22.85;3.67;;;2.40;99.90;;;;;;5113240;28;20122;-69
2022/01/20 05:30:50;;;;;;;21.70;3.42;;;2.40;99.90;;;;;;5113019;28;20039;-69
2022/01/20 05:33:16;;;;;;;24.20;3.90;;;3.10;99.90;;;;;;5113253;28;20117;-69
2022/01/20 05:35:42;;;;;;;13.95;3.42;;;;;;;;;;5111650;28;20048;-69
2022/01/20 05:38:08;;;;;;;28.38;3.78;;;2.40;99.90;;;;;;5111828;28;20055;-69
2022/01/20 05:40:35;;;;;;;15.38;3.50;;;2.30;99.90;;;;;;5111760;28;20055;-68
2022/01/20 05:43:02;;;;;;;19.65;3.42;;;2.60;99.90;;;;;;5112935;28;20039;-68
2022/01/20 05:45:29;;;;;;;28.85;3.50;;;;;;;;;;5112019;28;20090;-68
2022/01/20 05:48:01;;;;;;;23.42;3.88;;;2.40;99.90;;;;;;5112814;28;20126;-68
2022/01/20 05:50:30;;;;;;;19.88;3.65;;;2.40;99.90;;;;;;5111575;28;20055;-68
2022/01/20 05:52:56;;;;;;;24.10;4.15;;;;;;;;;;5112640;28;20040;-68
2022/01/20 05:55:22;;;;;;;25.45;3.72;;;;;;;;;;5111260;28;20047;-68
2022/01/20 05:57:48;;;;;;;21.65;3.80;;;2.80;99.90;;;;;;5111577;28;20047;-68
2022/01/20 06:00:24;;;;;;;21.65;3.72;;;2.60;99.90;;;;;;5112723;28;20487;-68
2022/01/20 06:05:34;;;;;;;16.38;2.70;;;;;;;;;;5111269;28;19930;-68
2022/01/20 06:08:01;;;;;;;15.40;2.78;;;2.60;99.90;;;;;;5110741;28;20079;-68
2022/01/20 06:10:28;;;;;;;19.17;2.88;;;;;;;;;;5111286;28;20047;-68
2022/01/20 06:12:53;;;;;;;10.68;2.33;;;2.70;99.90;;;;;;5112211;28;20087;-68
2022/01/20 06:15:19;;;;;;;14.95;2.47;;;;;;;;;;5112149;28;20078;-68
2022/01/20 06:17:45;;;;;;;12.95;2.53;;;;;;;;;;5111942;28;20043;-68
2022/01/20 06:20:12;;;;;;;16.42;3.00;;;2.90;99.90;;;;;;5111796;28;20063;-68
2022/01/20 06:22:38;;;;;;;16.10;2.85;;;1.80;99.90;;;;;;5110881;28;20051;-68
2022/01/20 06:25:05;;;;;;;14.75;2.53;;;2.20;99.90;;;;;;5112048;28;20054;-68
2022/01/20 06:27:31;;;;;;;16.02;2.63;;;2.30;99.90;;;;;;5112257;28;20394;-68
2022/01/20 06:29:57;;;;;;;16.83;2.92;;;;;;;;;;5110529;28;20051;-68
2022/01/20 06:32:23;;;;;;;15.32;2.92;;;;;;;;;;5112002;28;20049;-68
2022/01/20 06:34:49;;;;;;;18.20;4.20;;;2.40;99.90;;;;;;5111634;28;20066;-68
2022/01/20 06:37:17;;;;;;;18.02;3.13;;;2.10;99.90;;;;;;5110192;28;20409;-68
2022/01/20 06:39:43;;;;;;;18.08;3.17;;;;;;;;;;5093106;28;20056;-69
2022/01/20 06:42:09;;;;;;;18.88;2.95;;;;;;;;;;5111567;28;20408;-68
2022/01/20 06:44:35;;;;;;;23.67;3.78;;;;;;;;;;5110099;28;20040;-68
2022/01/20 06:47:01;;;;;;;17.67;3.20;;;1.30;99.90;;;;;;5110070;28;20126;-68
2022/01/20 06:49:26;;;;;;;15.15;2.75;;;2.50;99.90;;;;;;5111566;28;20119;-68
2022/01/20 06:51:52;;;;;;;19.42;3.42;;;3.00;99.90;;;;;;5111748;28;20047;-68
2022/01/20 06:54:18;;;;;;;22.02;3.17;;;2.60;99.90;;;;;;5111560;28;20078;-68
2022/01/20 06:56:44;;;;;;;22.85;3.10;;;;;;;;;;5111547;28;20127;-68
2022/01/20 06:59:13;;;;;;;20.02;3.17;;;2.60;99.90;;;;;;5111230;28;20142;-67
2022/01/20 07:01:40;;;;;;;21.63;3.70;;;1.60;99.90;;;;;;5111287;28;20043;-68
2022/01/20 07:04:06;;;;;;;18.98;3.35;;;2.40;99.90;;;;;;5109614;28;20510;-68
2022/01/20 07:06:33;;;;;;;26.90;3.17;;;2.30;99.90;;;;;;5109913;28;20036;-68
2022/01/20 07:08:59;;;;;;;14.32;3.38;;;2.40;99.90;;;;;;5110201;28;20510;-68
2022/01/20 07:11:25;;;;;;;19.77;3.17;;;2.10;99.90;;;;;;5111475;28;20115;-68
2022/01/20 07:13:51;;;;;;;21.05;3.15;;;;;;;;;;5110884;28;20055;-68
2022/01/20 07:16:17;;;;;;;17.75;2.97;;;2.90;99.90;;;;;;5109369;28;20123;-68
2022/01/20 07:18:43;;;;;;;16.63;2.95;;;;;;;;;;5109208;28;20126;-68
2022/01/20 07:21:12;;;;;;;18.73;3.38;;;2.10;99.90;;;;;;5110773;28;20058;-68
2022/01/20 07:23:40;;;;;;;17.67;3.28;;;2.30;99.90;;;;;;5110803;28;20043;-68
2022/01/20 07:26:06;;;;;;;17.92;3.00;;;;;;;;;;5110099;28;20074;-71
2022/01/20 07:28:31;;;;;;;18.05;3.03;;;2.20;99.90;;;;;;5098554;28;20051;-70
2022/01/20 07:30:57;;;;;;;18.80;3.45;;;2.30;99.90;;;;;;5095951;28;20073;-71
2022/01/20 07:33:24;;;;;;;18.63;3.38;;;2.10;99.90;;;;;;5103972;27;20399;-70
2022/01/20 07:35:52;;;;;;;18.15;3.40;;;2.20;99.90;;;;;;5121456;27;20445;-70
2022/01/20 07:38:19;;;;;;;20.15;3.70;;;2.00;99.90;;;;;;5116098;27;20070;-70
2022/01/20 07:40:45;;;;;;;14.52;3.20;;;2.00;99.90;;;;;;5122086;27;20139;-70
2022/01/20 07:43:11;;;;;;;16.25;3.53;;;;;;;;;;5116761;27;20450;-68
2022/01/20 07:45:37;;;;;;;23.42;3.85;;;;;;;;;;5118157;28;20063;-68
2022/01/20 07:48:03;;;;;;;18.75;3.88;;;1.80;99.90;;;;;;5108716;28;20391;-68
2022/01/20 07:50:29;;;;;;;17.02;3.28;;;;;;;;;;5108325;28;20051;-68
2022/01/20 07:52:55;;;;;;;26.90;3.30;;;;;;;;;;5108521;28;20048;-68
2022/01/20 07:55:21;;;;;;;21.17;3.67;;;;;;;;;;5100945;28;20097;-68
2022/01/20 07:57:47;;;;;;;15.85;3.20;;;1.80;99.90;;;;;;5070846;28;20048;-68
2022/01/20 08:00:13;;;;;;;22.42;3.65;;;1.80;99.90;;;;;;5087676;28;20056;-68
2022/01/20 08:02:39;;;;;;;17.42;3.13;;;1.80;99.90;;;;;;5095110;28;20034;-68
2022/01/20 08:05:06;;;;;;;17.17;3.20;;;;;;;;;;5107944;28;20051;-68
2022/01/20 08:07:32;;;;;;;19.73;3.30;;;;;;;;;;5108523;28;20050;-68
2022/01/20 08:09:58;;;;;;;25.52;4.10;;;2.40;99.90;;;;;;5108535;28;20453;-68
2022/01/20 08:12:25;;;;;;;17.70;2.95;;;2.50;99.90;;;;;;5108649;28;20538;-68
2022/01/20 08:14:51;;;;;;;16.75;3.22;;;2.00;99.90;;;;;;5098234;28;20044;-68
2022/01/20 08:17:18;;;;;;;22.13;3.28;;;;;;;;;;5089714;28;20105;-68
2022/01/20 08:19:44;;;;;;;17.33;2.90;;;2.10;99.90;;;;;;5090060;27;20503;-68
2022/01/20 08:22:10;;;;;;;18.08;2.83;;;2.00;99.90;;;;;;5107338;28;20422;-68
2022/01/20 08:24:37;;;;;;;18.95;3.38;;;2.20;99.90;;;;;;5107152;28;20075;-68
2022/01/20 08:27:03;;;;;;;18.08;3.13;;;;;;;;;;5108421;27;20083;-68
2022/01/20 08:29:29;;;;;;;19.65;3.20;;;;;;;;;;5106864;28;20051;-68
2022/01/20 08:31:55;;;;;;;20.75;3.78;;;2.60;99.90;;;;;;5109815;27;20122;-68
2022/01/20 08:34:21;;;;;;;16.88;3.03;;;;;;;;;;5094275;28;20162;-68
2022/01/20 08:36:47;;;;;;;20.33;3.47;;;;;;;;;;5111895;27;20071;-68
2022/01/20 08:41:58;;;;;;;20.73;3.50;;;2.50;99.90;;;;;;5108710;27;20035;-68
2022/01/20 08:44:24;;;;;;;24.65;3.55;;;;;;;;;;5112138;28;20040;-68
2022/01/20 08:46:52;;;;;;;16.42;3.63;;;2.70;99.90;;;;;;5111639;27;20043;-68
2022/01/20 08:49:18;;;;;;;22.27;3.30;;;1.80;99.90;;;;;;5118433;27;20047;-68
2022/01/20 08:51:44;;;;;;;20.60;3.42;;;;;;;;;;5110057;28;20079;-68
2022/01/20 08:54:10;;;;;;;25.73;3.42;;;;;;;;;;5111990;28;20032;-68
2022/01/20 08:56:36;;;;;;;19.75;3.85;;;;;;;;;;5109764;27;20237;-68
2022/01/20 08:59:07;;;;;;;25.27;4.22;;;2.90;99.90;;;;;;5111090;28;20546;-69
2022/01/20 09:01:34;;;;;;;21.67;3.42;;;3.00;99.90;;;;;;5111472;27;20035;-68
2022/01/20 09:04:00;;;;;;;22.02;3.70;;;2.50;99.90;;;;;;5110210;28;20046;-68
2022/01/20 09:06:26;;;;;;;21.90;3.75;;;2.70;99.90;;;;;;5111504;27;20052;-68
2022/01/20 09:08:52;;;;;;;21.23;3.58;;;;;;;;;;5111196;28;20495;-68
2022/01/20 09:11:35;;;;;;;24.92;3.90;;;;;;;;;;5110179;27;20075;-68
2022/01/20 09:16:46;;;;;;;20.42;3.67;;;;;;;;;;5109782;27;20132;-68
2022/01/20 09:19:12;;;;;;;24.20;3.50;;;;;;;;;;5111184;28;20388;-68
2022/01/20 09:21:39;;;;;;;17.77;3.22;;;;;;;;;;5110770;27;20050;-68
2022/01/20 09:24:06;;;;;;;22.77;3.72;;;3.10;99.90;;;;;;5111475;28;20471;-68
2022/01/20 09:26:31;;;;;;;19.95;4.25;;;3.00;99.90;;;;;;5110386;28;20042;-68
2022/01/20 09:28:58;;;;;;;16.60;4.07;;;3.40;99.90;;;;;;5111081;27;20094;-68
2022/01/20 09:31:25;;;;;;;23.13;4.05;;;3.20;99.90;;;;;;5110822;28;20043;-68
2022/01/20 09:33:52;;;;;;;21.42;3.97;;;2.90;99.90;;;;;;5093367;28;20309;-68
2022/01/20 09:36:19;;;;;;;19.23;3.95;;;;;;;;;;5110931;28;20049;-68
2022/01/20 09:38:47;;;;;;;18.83;3.97;;;3.50;99.90;;;;;;5109096;28;20082;-68
2022/01/20 09:41:13;;;;;;;22.40;4.15;;;;;;;;;;5093244;28;20498;-68
2022/01/20 09:43:39;;;;;;;22.67;3.78;;;2.60;99.90;;;;;;5107969;28;20040;-71
2022/01/20 09:46:05;;;;;;;18.80;3.15;;;;;;;;;;5109427;28;20047;-71
2022/01/20 09:48:34;;;;;;;25.33;3.92;;;;;;;;;;5110404;27;20448;-71
2022/01/20 09:51:00;;;;;;;23.92;4.38;;;4.40;99.90;;;;;;5109403;28;20049;-71
2022/01/20 09:53:30;;;;;;;17.08;3.42;;;4.80;99.90;;;;;;5109309;27;20406;-71
2022/01/20 09:55:57;;;;;;;14.38;3.25;;;3.90;99.90;;;;;;5092641;28;20043;-71
2022/01/20 09:58:23;;;;;;;20.70;3.65;;;4.70;99.90;;;;;;5110130;27;20059;-71
2022/01/20 10:00:51;;;;;;;18.98;3.40;;;4.60;99.90;;;;;;5109664;28;20152;-71
2022/01/20 10:03:19;;;;;;;18.77;3.80;;;4.30;99.90;;;;;;5110869;27;20065;-71
2022/01/20 10:05:53;;;;;;;12.75;3.05;;;4.80;99.90;;;;;;5111377;28;20365;-71
2022/01/20 10:08:24;;;;;;;12.63;2.80;;;3.90;99.90;;;;;;5109308;27;20046;-71
2022/01/20 10:10:53;;;;;;;11.00;3.38;;;;;;;;;;5107594;28;20044;-71
2022/01/20 10:13:31;;;;;;;16.50;3.10;;;3.70;99.90;;;;;;5108821;27;20172;-71
2022/01/20 10:16:12;;;;;;;16.92;3.90;;;3.60;99.90;;;;;;5118941;27;20090;-71
2022/01/20 10:18:53;;;;;;;15.57;3.20;;;3.40;99.90;;;;;;5110051;27;20049;-71
2022/01/20 10:21:28;;;;;;;16.02;3.20;;;3.50;99.90;;;;;;5109118;28;20111;-71
2022/01/20 10:23:54;;;;;;;11.38;3.05;;;;;;;;;;5108074;27;20408;-71
2022/01/20 10:26:24;;;;;;;13.02;3.50;;;3.50;99.90;;;;;;5110270;28;20027;-71
2022/01/20 10:29:08;;;;;;;15.63;3.65;;;3.40;99.90;;;;;;5107795;27;20114;-71
2022/01/20 10:31:51;;;;;;;12.60;3.40;;;3.40;99.90;;;;;;5106546;28;20487;-71
2022/01/20 10:34:31;;;;;;;14.65;3.08;;;3.70;99.90;;;;;;5106816;27;20074;-72
2022/01/20 10:37:04;;;;;;;11.65;2.58;;;3.60;99.90;;;;;;5091728;28;20087;-71
2022/01/20 10:39:44;;;;;;;12.25;2.90;;;3.90;99.90;;;;;;5109120;27;20071;-71
2022/01/20 10:42:16;;;;;;;11.85;2.65;;;3.50;99.90;;;;;;5110370;27;20460;-71
2022/01/20 10:44:45;;;;;;;13.95;2.70;;;4.30;99.90;;;;;;5107463;28;20160;-71
2022/01/20 10:47:12;;;;;;;15.43;2.92;;;4.30;99.90;;;;;;5108294;28;20539;-72
2022/01/20 10:49:38;;;;;;;13.10;2.80;;;4.20;99.90;;;;;;5107874;27;20047;-71
2022/01/20 10:52:07;;;;;;;13.55;3.10;;;4.20;99.90;;;;;;5108676;28;20487;-72
2022/01/20 10:54:38;;;;;;;15.38;3.30;;;4.20;99.90;;;;;;5107475;27;20085;-72
2022/01/20 10:57:04;;;;;;;17.02;3.08;;;3.50;99.90;;;;;;5108225;28;20039;-72
2022/01/20 10:59:33;;;;;;;14.70;3.20;;;4.20;99.90;;;;;;5109486;28;20547;-71
2022/01/20 11:02:06;;;;;;;13.43;2.95;;;4.10;99.90;;;;;;5107999;28;20044;-71
2022/01/20 11:04:32;;;;;;;14.38;3.00;;;4.10;99.90;;;;;;5108047;28;20066;-71
2022/01/20 11:07:02;;;;;;;16.15;3.13;;;3.70;99.90;;;;;;5107979;27;20104;-71
2022/01/20 11:09:30;;;;;;;13.45;2.88;;;4.10;99.90;;;;;;5106913;28;20039;-71
2022/01/20 11:11:58;;;;;;;14.05;3.60;;;4.00;99.90;;;;;;5108749;27;20047;-71
2022/01/20 11:14:24;;;;;;;10.10;2.65;;;3.90;99.90;;;;;;5108499;28;20051;-72
2022/01/20 11:16:49;;;;;;;12.05;2.70;;;4.20;99.90;;;;;;5095684;28;20046;-72
2022/01/20 11:19:21;;;;;;;12.80;2.67;;;4.40;99.90;;;;;;5108983;28;20543;-71
2022/01/20 11:21:49;;;;;;;16.60;2.90;;;4.90;99.90;;;;;;5091315;28;20529;-72
2022/01/20 11:24:23;;;;;;;12.82;2.83;;;4.50;99.90;;;;;;5108916;28;20051;-72
2022/01/20 11:26:57;;;;;;;12.93;2.85;;;4.40;99.90;;;;;;5107070;28;20044;-72
2022/01/20 11:29:36;;;;;;;14.40;3.13;;;4.10;99.90;;;;;;5109392;28;20083;-71
2022/01/20 11:32:02;;;;;;;16.55;3.13;;;4.40;99.90;;;;;;5109815;27;20081;-71
2022/01/20 11:34:29;;;;;;;14.82;2.85;;;;;;;;;;5109225;28;20589;-71
2022/01/20 11:36:55;;;;;;;12.60;2.90;;;;;;;;;;5109163;27;20079;-71
2022/01/20 11:39:24;;;;;;;14.15;3.00;;;4.60;99.90;;;;;;5109179;28;20086;-71
2022/01/20 11:41:51;;;;;;;19.30;3.28;;;5.00;99.90;;;;;;5109507;27;20449;-70
2022/01/20 11:44:26;;;;;;;15.00;3.28;;;4.60;99.90;;;;;;5109048;28;20450;-71
2022/01/20 11:47:03;;;;;;;21.93;3.60;;;4.80;99.90;;;;;;5109617;28;20036;-71
2022/01/20 11:49:35;;;;;;;18.65;3.40;;;4.70;99.90;;;;;;5110919;28;20047;-71
2022/01/20 11:52:01;;;;;;;14.45;3.28;;;;;;;;;;5111030;28;20074;-72
2022/01/20 11:54:37;;;;;;;18.92;3.53;;;4.90;99.90;;;;;;5109843;28;20040;-71
2022/01/20 11:57:21;;;;;;;15.52;3.17;;;4.70;99.90;;;;;;5109414;28;20118;-71
2022/01/20 11:59:57;;;;;;;18.58;3.20;;;4.30;99.90;;;;;;5118907;28;20047;-71
2022/01/20 12:02:34;;;;;;;17.63;3.33;;;4.20;99.90;;;;;;5129741;28;20043;-71
2022/01/20 12:05:26;;;;;;;18.05;3.50;;;4.10;99.90;;;;;;5122368;27;20384;-71
2022/01/20 12:08:04;;;;;;;22.08;4.03;;;4.10;99.90;;;;;;5105845;28;20048;-71
2022/01/20 12:10:30;;;;;;;22.98;3.83;;;4.10;99.90;;;;;;5112032;28;20054;-70
2022/01/20 12:13:11;;;;;;;18.65;3.53;;;4.30;99.90;;;;;;5114098;28;20060;-70
2022/01/20 12:15:52;;;;;;;18.92;3.38;;;4.80;99.90;;;;;;5113235;28;20050;-71
2022/01/20 12:18:18;;;;;;;20.23;3.80;;;4.60;99.90;;;;;;5114055;28;20061;-71
2022/01/20 12:20:44;;;;;;;20.08;4.10;;;;;;;;;;5114256;28;20090;-71
2022/01/20 12:23:10;;;;;;;21.45;3.90;;;5.00;99.90;;;;;;5114258;28;20043;-71
2022/01/20 12:25:36;;;;;;;18.23;3.70;;;4.60;99.90;;;;;;5114297;28;20176;-71
2022/01/20 12:28:13;;;;;;;18.75;3.20;;;5.00;99.90;;;;;;5114237;28;20051;-70
2022/01/20 12:30:47;;;;;;;11.15;2.95;;;4.80;99.90;;;;;;5114008;28;20047;-71
2022/01/20 12:33:15;;;;;;;16.45;2.90;;;4.50;99.90;;;;;;5095881;28;20047;-71
2022/01/20 12:35:44;;;;;;;13.27;2.60;;;4.60;99.90;;;;;;5114446;28;20050;-71
2022/01/20 12:38:40;;;;;;;10.05;2.53;;;4.50;99.90;;;;;;5112437;28;20491;-71
2022/01/20 12:41:07;;;;;;;11.45;2.42;;;;;;;;;;5112997;28;20357;-71
2022/01/20 12:43:36;;;;;;;13.00;2.35;;;4.50;99.90;;;;;;5113855;28;20395;-71
2022/01/20 12:46:02;;;;;;;12.32;2.88;;;;;;;;;;5112633;28;20509;-71
2022/01/20 12:48:28;;;;;;;15.02;3.22;;;4.70;99.90;;;;;;5114097;28;20050;-71
2022/01/20 12:51:02;;;;;;;14.18;3.08;;;4.80;99.90;;;;;;5112936;28;20063;-71
2022/01/20 12:53:40;;;;;;;17.88;3.05;;;4.70;99.90;;;;;;5112806;28;20445;-71
2022/01/20 12:56:09;;;;;;;15.25;3.13;;;4.70;99.90;;;;;;5113661;28;20114;-69
2022/01/20 12:58:46;;;;;;;15.57;3.20;;;4.60;99.90;;;;;;5113827;28;20051;-69
2022/01/20 13:01:12;;;;;;;15.65;3.17;;;4.60;99.90;;;;;;5112449;28;20044;-68
2022/01/20 13:03:42;;;;;;;20.30;3.78;;;4.60;99.90;;;;;;5113956;28;20047;-69
2022/01/20 13:06:19;;;;;;;13.00;3.10;;;5.00;99.90;;;;;;5113976;28;20436;-71
2022/01/20 13:09:07;;;;;;;13.30;3.22;;;4.50;99.90;;;;;;5113897;28;20147;-71
2022/01/20 13:11:43;;;;;;;17.10;3.58;;;4.80;99.90;;;;;;5113790;28;20040;-71
2022/01/20 13:14:10;;;;;;;16.35;3.35;;;4.60;99.90;;;;;;5112154;28;20116;-71
2022/01/20 13:16:37;;;;;;;15.95;3.17;;;4.90;99.90;;;;;;5112042;28;20499;-71
2022/01/20 13:19:05;;;;;;;15.43;2.92;;;4.80;99.90;;;;;;5111720;28;20062;-71
2022/01/20 13:21:43;;;;;;;17.10;3.80;;;4.60;99.90;;;;;;5113255;28;20055;-71
2022/01/20 13:24:17;;;;;;;15.13;3.20;;;4.60;99.90;;;;;;5111789;28;20040;-71
2022/01/20 13:26:51;;;;;;;16.85;3.20;;;4.70;99.90;;;;;;5112177;28;20556;-71
2022/01/20 13:29:17;;;;;;;15.75;3.72;;;4.90;99.90;;;;;;5112911;28;20043;-71
2022/01/20 13:31:45;;;;;;;18.45;3.75;;;4.60;99.90;;;;;;5111768;28;20081;-71
2022/01/20 13:34:15;;;;;;;15.35;3.20;;;4.80;99.90;;;;;;5111841;28;20051;-71
2022/01/20 13:36:43;;;;;;;21.67;3.22;;;4.80;99.90;;;;;;5111723;28;20120;-71
2022/01/20 13:39:10;;;;;;;14.45;3.15;;;4.80;99.90;;;;;;5111796;28;20126;-69
2022/01/20 13:41:37;;;;;;;21.15;4.00;;;4.70;99.90;;;;;;5112132;28;20075;-69
2022/01/20 13:47:06;;;;;;;;;;;4.50;99.90;;;;;;5111915;28;20047;-69
2022/01/20 13:49:32;;;;;;;21.48;4.25;;;4.40;99.90;;;;;;5111410;28;19922;-69
2022/01/20 13:51:59;;;;;;;24.80;4.07;;;4.60;99.90;;;;;;5112667;28;20044;-69
2022/01/20 13:54:40;;;;;;;16.38;4.55;;;4.50;99.90;;;;;;5111455;28;20051;-69
2022/01/20 13:57:07;;;;;;;15.55;3.55;;;4.60;99.90;;;;;;5124140;27;20129;-69
2022/01/20 13:59:33;;;;;;;17.95;3.70;;;4.70;99.90;;;;;;5132077;27;20398;-69
2022/01/20 14:01:59;;;;;;;23.83;4.00;;;4.30;99.90;;;;;;5132107;27;20035;-69
2022/01/20 14:04:25;;;;;;;19.17;3.88;;;4.40;99.90;;;;;;5133070;27;20454;-70
2022/01/20 14:06:51;;;;;;;21.25;4.15;;;4.20;99.90;;;;;;5131774;27;20043;-69
2022/01/20 14:09:17;;;;;;;22.40;4.50;;;;;;;;;;5131369;27;20053;-69
2022/01/20 14:11:45;;;;;;;22.95;4.32;;;4.30;99.90;;;;;;5132828;27;20104;-70
2022/01/20 14:14:11;;;;;;;16.50;3.92;;;;;;;;;;5131291;27;20063;-68
2022/01/20 14:16:38;;;;;;;23.95;4.15;;;4.90;99.90;;;;;;5131587;27;20129;-69
2022/01/20 14:19:06;;;;;;;19.35;3.50;;;4.50;99.90;;;;;;5131324;27;20047;-69
2022/01/20 14:21:35;;;;;;;18.20;3.70;;;3.70;99.90;;;;;;5131479;27;20039;-70
2022/01/20 14:24:01;;;;;;;17.73;3.17;;;;;;;;;;5132690;27;20225;-69